METAR-Meldungen aus der Umgebung

   
EDMO - Oberpfaffenhofen, Germany
Entfernung von der Station bis: SSO 18 km
Aktualisierung: 10-12-2022 10:20
Nebel, Bewölkt  
Nebel, Bewölkt  
   Wind: NNO 11.1 km/h
Wind: NNO 11.1 km/h
Temperatur: -1°C
Gefühlt: -5°C
Taupunkt: -1°C
Luftfeuchte: 100%
Luftdruck: 1003 hPa
Bewölkt: Overcast
Sichtbarkeit: 5 km
Bewölkung: Bewölkt 400 ft
EDMO 100920Z 02006KT 5000 BR OVC004 M01/M01 Q1003
ETSL - Lechfeld (ger-Af, Germany
Entfernung von der Station bis: WSW 23 km
Aktualisierung: 10-12-2022 10:20
  
  
   Wind: Norden 9.3 km/h
Wind: Norden 9.3 km/h
Temperatur: -1°C
Gefühlt: -4°C
Taupunkt: -1°C
Luftfeuchte: 100%
Luftdruck: 1004 hPa
Sichtbarkeit: 2 km
ETSL 100920Z AUTO 36005KT 1500 // ////// M01/M01 Q1004 ///
EDMA - Augsburg/Mulhaus, Germany
Entfernung von der Station bis: NW 30 km
Aktualisierung: 10-12-2022 10:20
Bewölkt  
Bewölkt  
   Wind: NNO 7.4 km/h
Wind: NNO 7.4 km/h
Temperatur: 0°C
Gefühlt: -3°C
Taupunkt: -1°C
Luftfeuchte: 93%
Luftdruck: 1005 hPa
Bewölkt: Overcast
Sichtbarkeit: 7 km
Bewölkung: leicht bewölkt 700 ft,
Bewölkt 3600 ft
EDMA 100920Z 02004KT 7000 FEW007 OVC036 M00/M01 Q1005
ETHA - Altenstadt/Schon, Germany
Entfernung von der Station bis: SSW 49 km
Aktualisierung: 10-12-2022 10:20
  
  
   Wind: NO 11.1 km/h
Wind: NO 11.1 km/h
Temperatur: -1°C
Gefühlt: -5°C
Taupunkt: -1°C
Luftfeuchte: 100%
Luftdruck: 1003 hPa
Sichtbarkeit: 1 km
ETHA 100920Z AUTO 04006KT 0450 // ////// M01/M01 Q1003 ///
EDDM - Munich-Flughafen, Germany
Entfernung von der Station bis: ONO 50 km
Aktualisierung: 10-12-2022 10:50
Stark bewölkt  
Stark bewölkt  
   Wind: variiert 3.7 km/h
Wind: variiert 3.7 km/h
Temperatur: 0°C
Taupunkt: -1°C
Luftfeuchte: 93%
Luftdruck: 1004 hPa
Bewölkt: Mostly Cloudy
Sichtbarkeit: 8 km
Bewölkung: Stark bewölkt 700 ft
EDDM 100950Z AUTO VRB02KT 8000 BKN007 00/M01 Q1004 TEMPO 4000 -SN
 

Script entwickelt von  Saratoga-weather.org Angepasst für das Template von  Weerstation Leuven